sensor_id;sensor_type;location;lat;lon;timestamp;P1;durP1;ratioP1;P2;durP2;ratioP2
56242;SDS011;42155;53.096;23.226;2023-06-14T00:01:06;9.82;;;4.80;;
56242;SDS011;42155;53.096;23.226;2023-06-14T00:03:06;9.68;;;4.53;;
56242;SDS011;42155;53.096;23.226;2023-06-14T00:05:07;10.05;;;4.93;;
56242;SDS011;42155;53.096;23.226;2023-06-14T00:07:08;9.38;;;5.43;;
56242;SDS011;42155;53.096;23.226;2023-06-14T00:09:08;7.82;;;5.10;;
56242;SDS011;42155;53.096;23.226;2023-06-14T00:11:08;10.10;;;4.65;;
56242;SDS011;42155;53.096;23.226;2023-06-14T00:13:09;9.38;;;4.80;;
56242;SDS011;42155;53.096;23.226;2023-06-14T00:15:09;8.15;;;5.10;;
56242;SDS011;42155;53.096;23.226;2023-06-14T00:17:10;11.02;;;5.20;;
56242;SDS011;42155;53.096;23.226;2023-06-14T00:19:10;8.68;;;4.50;;
56242;SDS011;42155;53.096;23.226;2023-06-14T00:21:10;8.73;;;4.80;;
56242;SDS011;42155;53.096;23.226;2023-06-14T00:23:11;7.25;;;4.50;;
56242;SDS011;42155;53.096;23.226;2023-06-14T00:25:11;10.57;;;4.78;;
56242;SDS011;42155;53.096;23.226;2023-06-14T00:27:12;8.65;;;5.03;;
56242;SDS011;42155;53.096;23.226;2023-06-14T00:29:12;10.48;;;5.00;;
56242;SDS011;42155;53.096;23.226;2023-06-14T00:31:12;7.90;;;4.95;;
56242;SDS011;42155;53.096;23.226;2023-06-14T00:33:13;14.80;;;5.63;;
56242;SDS011;42155;53.096;23.226;2023-06-14T00:35:13;6.55;;;4.75;;
56242;SDS011;42155;53.096;23.226;2023-06-14T00:37:13;12.88;;;5.47;;
56242;SDS011;42155;53.096;23.226;2023-06-14T00:39:14;11.70;;;5.53;;
56242;SDS011;42155;53.096;23.226;2023-06-14T00:41:14;7.97;;;5.10;;
56242;SDS011;42155;53.096;23.226;2023-06-14T00:43:14;8.18;;;4.90;;
56242;SDS011;42155;53.096;23.226;2023-06-14T00:45:15;7.78;;;5.55;;
56242;SDS011;42155;53.096;23.226;2023-06-14T00:47:15;10.25;;;5.35;;
56242;SDS011;42155;53.096;23.226;2023-06-14T00:49:15;10.02;;;5.32;;
56242;SDS011;42155;53.096;23.226;2023-06-14T00:51:17;10.38;;;5.10;;
56242;SDS011;42155;53.096;23.226;2023-06-14T00:53:18;10.10;;;5.63;;
56242;SDS011;42155;53.096;23.226;2023-06-14T00:55:19;10.93;;;5.55;;
56242;SDS011;42155;53.096;23.226;2023-06-14T00:57:20;8.30;;;5.22;;
56242;SDS011;42155;53.096;23.226;2023-06-14T00:59:20;8.23;;;5.30;;
56242;SDS011;42155;53.096;23.226;2023-06-14T01:01:20;10.45;;;5.78;;
56242;SDS011;42155;53.096;23.226;2023-06-14T01:03:21;7.55;;;5.00;;
56242;SDS011;42155;53.096;23.226;2023-06-14T01:05:21;9.30;;;5.00;;
56242;SDS011;42155;53.096;23.226;2023-06-14T01:09:55;8.43;;;5.50;;
56242;SDS011;42155;53.096;23.226;2023-06-14T01:12:21;9.45;;;5.60;;
56242;SDS011;42155;53.096;23.226;2023-06-14T01:14:29;10.05;;;5.15;;
56242;SDS011;42155;53.096;23.226;2023-06-14T01:16:31;12.70;;;5.95;;
56242;SDS011;42155;53.096;23.226;2023-06-14T01:18:32;10.00;;;5.63;;
56242;SDS011;42155;53.096;23.226;2023-06-14T01:20:33;9.77;;;5.63;;
56242;SDS011;42155;53.096;23.226;2023-06-14T01:22:34;8.73;;;5.15;;
56242;SDS011;42155;53.096;23.226;2023-06-14T01:24:34;6.60;;;5.25;;
56242;SDS011;42155;53.096;23.226;2023-06-14T01:26:35;23.00;;;6.38;;
56242;SDS011;42155;53.096;23.226;2023-06-14T01:28:36;16.92;;;6.00;;
56242;SDS011;42155;53.096;23.226;2023-06-14T01:30:40;14.57;;;5.18;;
56242;SDS011;42155;53.096;23.226;2023-06-14T01:32:42;12.57;;;5.68;;
56242;SDS011;42155;53.096;23.226;2023-06-14T01:34:43;13.85;;;5.40;;
56242;SDS011;42155;53.096;23.226;2023-06-14T01:36:43;15.10;;;5.40;;
56242;SDS011;42155;53.096;23.226;2023-06-14T01:38:46;18.20;;;5.68;;
56242;SDS011;42155;53.096;23.226;2023-06-14T01:40:47;11.68;;;6.00;;
56242;SDS011;42155;53.096;23.226;2023-06-14T01:42:49;10.77;;;5.93;;
56242;SDS011;42155;53.096;23.226;2023-06-14T01:44:50;8.85;;;5.35;;
56242;SDS011;42155;53.096;23.226;2023-06-14T01:46:53;9.00;;;5.32;;
56242;SDS011;42155;53.096;23.226;2023-06-14T01:48:54;11.05;;;5.88;;
56242;SDS011;42155;53.096;23.226;2023-06-14T01:50:54;12.05;;;5.55;;
56242;SDS011;42155;53.096;23.226;2023-06-14T01:52:55;9.05;;;5.82;;
56242;SDS011;42155;53.096;23.226;2023-06-14T01:54:55;8.32;;;5.50;;
56242;SDS011;42155;53.096;23.226;2023-06-14T01:56:56;11.23;;;5.97;;
56242;SDS011;42155;53.096;23.226;2023-06-14T01:58:57;8.73;;;5.50;;
56242;SDS011;42155;53.096;23.226;2023-06-14T02:00:57;10.15;;;5.85;;
56242;SDS011;42155;53.096;23.226;2023-06-14T02:02:58;9.90;;;5.65;;
56242;SDS011;42155;53.096;23.226;2023-06-14T02:04:58;7.95;;;5.80;;
56242;SDS011;42155;53.096;23.226;2023-06-14T02:06:58;7.25;;;5.25;;
56242;SDS011;42155;53.096;23.226;2023-06-14T02:08:59;9.70;;;5.57;;
56242;SDS011;42155;53.096;23.226;2023-06-14T02:11:01;9.63;;;5.85;;
56242;SDS011;42155;53.096;23.226;2023-06-14T02:13:01;11.07;;;6.20;;
56242;SDS011;42155;53.096;23.226;2023-06-14T02:15:01;10.25;;;5.88;;
56242;SDS011;42155;53.096;23.226;2023-06-14T02:17:02;8.15;;;5.43;;
56242;SDS011;42155;53.096;23.226;2023-06-14T02:19:02;10.82;;;5.65;;
56242;SDS011;42155;53.096;23.226;2023-06-14T02:21:03;9.63;;;5.90;;
56242;SDS011;42155;53.096;23.226;2023-06-14T02:23:03;8.20;;;5.80;;
56242;SDS011;42155;53.096;23.226;2023-06-14T02:25:04;9.18;;;5.63;;
56242;SDS011;42155;53.096;23.226;2023-06-14T02:27:04;9.95;;;5.70;;
56242;SDS011;42155;53.096;23.226;2023-06-14T02:29:05;8.73;;;5.70;;
56242;SDS011;42155;53.096;23.226;2023-06-14T02:31:05;9.10;;;5.93;;
56242;SDS011;42155;53.096;23.226;2023-06-14T02:33:06;8.90;;;6.05;;
56242;SDS011;42155;53.096;23.226;2023-06-14T02:35:06;9.02;;;5.60;;
56242;SDS011;42155;53.096;23.226;2023-06-14T02:37:07;11.05;;;6.03;;
56242;SDS011;42155;53.096;23.226;2023-06-14T02:39:11;9.35;;;5.60;;
56242;SDS011;42155;53.096;23.226;2023-06-14T02:41:11;7.22;;;5.32;;
56242;SDS011;42155;53.096;23.226;2023-06-14T02:43:11;9.38;;;5.75;;
56242;SDS011;42155;53.096;23.226;2023-06-14T02:45:12;9.75;;;6.22;;
56242;SDS011;42155;53.096;23.226;2023-06-14T02:47:12;9.38;;;5.90;;
56242;SDS011;42155;53.096;23.226;2023-06-14T02:49:13;11.32;;;6.55;;
56242;SDS011;42155;53.096;23.226;2023-06-14T02:51:13;7.45;;;5.82;;
56242;SDS011;42155;53.096;23.226;2023-06-14T02:53:13;7.57;;;5.82;;
56242;SDS011;42155;53.096;23.226;2023-06-14T02:55:14;9.07;;;5.53;;
56242;SDS011;42155;53.096;23.226;2023-06-14T02:57:14;9.40;;;5.63;;
56242;SDS011;42155;53.096;23.226;2023-06-14T02:59:14;14.40;;;6.72;;
56242;SDS011;42155;53.096;23.226;2023-06-14T03:01:15;9.38;;;6.30;;
56242;SDS011;42155;53.096;23.226;2023-06-14T03:03:16;9.50;;;6.10;;
56242;SDS011;42155;53.096;23.226;2023-06-14T03:05:16;9.88;;;5.82;;
56242;SDS011;42155;53.096;23.226;2023-06-14T03:07:16;8.68;;;5.50;;
56242;SDS011;42155;53.096;23.226;2023-06-14T03:09:17;7.70;;;5.88;;
56242;SDS011;42155;53.096;23.226;2023-06-14T03:11:17;9.20;;;6.43;;
56242;SDS011;42155;53.096;23.226;2023-06-14T03:13:17;9.50;;;6.10;;
56242;SDS011;42155;53.096;23.226;2023-06-14T03:15:18;9.90;;;6.53;;
56242;SDS011;42155;53.096;23.226;2023-06-14T03:17:19;8.52;;;6.10;;
56242;SDS011;42155;53.096;23.226;2023-06-14T03:19:19;11.32;;;5.75;;
56242;SDS011;42155;53.096;23.226;2023-06-14T03:21:19;9.40;;;6.22;;
56242;SDS011;42155;53.096;23.226;2023-06-14T03:23:20;9.43;;;5.40;;
56242;SDS011;42155;53.096;23.226;2023-06-14T03:25:21;13.18;;;6.47;;
56242;SDS011;42155;53.096;23.226;2023-06-14T03:27:21;8.90;;;5.70;;
56242;SDS011;42155;53.096;23.226;2023-06-14T03:29:21;11.02;;;6.03;;
56242;SDS011;42155;53.096;23.226;2023-06-14T03:31:22;9.70;;;5.80;;
56242;SDS011;42155;53.096;23.226;2023-06-14T03:33:22;11.45;;;6.13;;
56242;SDS011;42155;53.096;23.226;2023-06-14T03:35:23;10.55;;;6.28;;
56242;SDS011;42155;53.096;23.226;2023-06-14T03:37:23;11.98;;;7.43;;
56242;SDS011;42155;53.096;23.226;2023-06-14T03:39:24;15.07;;;7.30;;
56242;SDS011;42155;53.096;23.226;2023-06-14T03:41:24;13.02;;;7.32;;
56242;SDS011;42155;53.096;23.226;2023-06-14T03:43:24;14.00;;;7.20;;
56242;SDS011;42155;53.096;23.226;2023-06-14T03:45:25;12.27;;;8.07;;
56242;SDS011;42155;53.096;23.226;2023-06-14T03:47:25;11.50;;;8.02;;
56242;SDS011;42155;53.096;23.226;2023-06-14T03:49:25;11.48;;;8.10;;
56242;SDS011;42155;53.096;23.226;2023-06-14T03:51:26;13.48;;;8.30;;
56242;SDS011;42155;53.096;23.226;2023-06-14T03:53:26;12.88;;;7.70;;
56242;SDS011;42155;53.096;23.226;2023-06-14T03:55:26;15.07;;;8.50;;
56242;SDS011;42155;53.096;23.226;2023-06-14T03:57:27;11.85;;;7.80;;
56242;SDS011;42155;53.096;23.226;2023-06-14T03:59:27;11.48;;;7.75;;
56242;SDS011;42155;53.096;23.226;2023-06-14T04:01:28;15.02;;;7.53;;
56242;SDS011;42155;53.096;23.226;2023-06-14T04:03:28;14.40;;;7.70;;
56242;SDS011;42155;53.096;23.226;2023-06-14T04:05:28;12.52;;;7.40;;
56242;SDS011;42155;53.096;23.226;2023-06-14T04:07:29;14.07;;;6.70;;
56242;SDS011;42155;53.096;23.226;2023-06-14T04:09:29;11.88;;;7.55;;
56242;SDS011;42155;53.096;23.226;2023-06-14T04:11:30;11.63;;;7.28;;
56242;SDS011;42155;53.096;23.226;2023-06-14T04:13:30;11.93;;;7.40;;
56242;SDS011;42155;53.096;23.226;2023-06-14T04:15:31;11.23;;;7.63;;
56242;SDS011;42155;53.096;23.226;2023-06-14T04:17:31;13.27;;;7.35;;
56242;SDS011;42155;53.096;23.226;2023-06-14T04:19:32;13.13;;;7.43;;
56242;SDS011;42155;53.096;23.226;2023-06-14T04:21:33;12.45;;;7.03;;
56242;SDS011;42155;53.096;23.226;2023-06-14T04:23:33;10.38;;;6.95;;
56242;SDS011;42155;53.096;23.226;2023-06-14T04:25:33;15.43;;;7.45;;
56242;SDS011;42155;53.096;23.226;2023-06-14T04:27:34;14.80;;;7.85;;
56242;SDS011;42155;53.096;23.226;2023-06-14T04:29:34;12.05;;;6.78;;
56242;SDS011;42155;53.096;23.226;2023-06-14T04:31:34;12.95;;;7.13;;
56242;SDS011;42155;53.096;23.226;2023-06-14T04:33:35;12.48;;;6.82;;
56242;SDS011;42155;53.096;23.226;2023-06-14T04:35:36;10.82;;;7.15;;
56242;SDS011;42155;53.096;23.226;2023-06-14T04:37:37;16.33;;;7.05;;
56242;SDS011;42155;53.096;23.226;2023-06-14T04:39:37;9.63;;;6.57;;
56242;SDS011;42155;53.096;23.226;2023-06-14T04:41:37;10.38;;;6.70;;
56242;SDS011;42155;53.096;23.226;2023-06-14T04:43:38;11.02;;;5.68;;
56242;SDS011;42155;53.096;23.226;2023-06-14T04:45:38;13.90;;;6.57;;
56242;SDS011;42155;53.096;23.226;2023-06-14T04:47:38;11.88;;;6.65;;
56242;SDS011;42155;53.096;23.226;2023-06-14T04:49:39;14.48;;;6.32;;
56242;SDS011;42155;53.096;23.226;2023-06-14T04:51:39;12.98;;;6.28;;
56242;SDS011;42155;53.096;23.226;2023-06-14T04:53:40;11.57;;;5.80;;
56242;SDS011;42155;53.096;23.226;2023-06-14T04:55:40;7.85;;;5.63;;
56242;SDS011;42155;53.096;23.226;2023-06-14T04:57:41;11.93;;;6.03;;
56242;SDS011;42155;53.096;23.226;2023-06-14T04:59:41;10.77;;;6.07;;
56242;SDS011;42155;53.096;23.226;2023-06-14T05:01:42;12.02;;;6.20;;
56242;SDS011;42155;53.096;23.226;2023-06-14T05:03:42;9.88;;;5.55;;
56242;SDS011;42155;53.096;23.226;2023-06-14T05:05:42;11.68;;;5.78;;
56242;SDS011;42155;53.096;23.226;2023-06-14T05:07:43;12.57;;;5.35;;
56242;SDS011;42155;53.096;23.226;2023-06-14T05:09:44;12.05;;;5.93;;
56242;SDS011;42155;53.096;23.226;2023-06-14T05:11:45;16.48;;;6.10;;
56242;SDS011;42155;53.096;23.226;2023-06-14T05:13:45;31.48;;;5.93;;
56242;SDS011;42155;53.096;23.226;2023-06-14T05:15:46;19.05;;;6.25;;
56242;SDS011;42155;53.096;23.226;2023-06-14T05:17:46;11.90;;;5.53;;
56242;SDS011;42155;53.096;23.226;2023-06-14T05:19:46;14.07;;;5.95;;
56242;SDS011;42155;53.096;23.226;2023-06-14T05:21:47;10.90;;;5.75;;
56242;SDS011;42155;53.096;23.226;2023-06-14T05:23:47;15.82;;;6.45;;
56242;SDS011;42155;53.096;23.226;2023-06-14T05:25:47;13.57;;;5.93;;
56242;SDS011;42155;53.096;23.226;2023-06-14T05:27:48;15.68;;;5.93;;
56242;SDS011;42155;53.096;23.226;2023-06-14T05:29:49;16.98;;;6.18;;
56242;SDS011;42155;53.096;23.226;2023-06-14T05:31:49;19.20;;;5.75;;
56242;SDS011;42155;53.096;23.226;2023-06-14T05:33:49;14.75;;;5.20;;
56242;SDS011;42155;53.096;23.226;2023-06-14T05:35:50;15.85;;;4.68;;
56242;SDS011;42155;53.096;23.226;2023-06-14T05:37:51;16.70;;;5.25;;
56242;SDS011;42155;53.096;23.226;2023-06-14T05:39:51;10.07;;;4.40;;
56242;SDS011;42155;53.096;23.226;2023-06-14T05:41:51;7.97;;;4.25;;
56242;SDS011;42155;53.096;23.226;2023-06-14T05:43:52;8.65;;;4.43;;
56242;SDS011;42155;53.096;23.226;2023-06-14T05:45:54;6.57;;;3.78;;
56242;SDS011;42155;53.096;23.226;2023-06-14T05:47:54;10.75;;;4.22;;
56242;SDS011;42155;53.096;23.226;2023-06-14T05:49:54;8.82;;;3.95;;
56242;SDS011;42155;53.096;23.226;2023-06-14T05:51:55;11.70;;;4.40;;
56242;SDS011;42155;53.096;23.226;2023-06-14T05:53:55;10.88;;;4.25;;
56242;SDS011;42155;53.096;23.226;2023-06-14T05:55:55;13.45;;;4.20;;
56242;SDS011;42155;53.096;23.226;2023-06-14T05:57:56;12.15;;;4.65;;
56242;SDS011;42155;53.096;23.226;2023-06-14T05:59:56;11.02;;;4.07;;
56242;SDS011;42155;53.096;23.226;2023-06-14T06:01:56;6.22;;;3.67;;
56242;SDS011;42155;53.096;23.226;2023-06-14T06:03:56;9.52;;;4.07;;
56242;SDS011;42155;53.096;23.226;2023-06-14T06:05:57;8.18;;;4.20;;
56242;SDS011;42155;53.096;23.226;2023-06-14T06:07:57;10.95;;;4.28;;
56242;SDS011;42155;53.096;23.226;2023-06-14T06:09:58;8.65;;;4.47;;
56242;SDS011;42155;53.096;23.226;2023-06-14T06:11:58;10.57;;;5.00;;
56242;SDS011;42155;53.096;23.226;2023-06-14T06:13:58;9.55;;;4.13;;
56242;SDS011;42155;53.096;23.226;2023-06-14T06:15:59;13.40;;;4.22;;
56242;SDS011;42155;53.096;23.226;2023-06-14T06:17:59;11.32;;;4.18;;
56242;SDS011;42155;53.096;23.226;2023-06-14T06:19:59;10.13;;;4.35;;
56242;SDS011;42155;53.096;23.226;2023-06-14T06:22:00;7.45;;;4.18;;
56242;SDS011;42155;53.096;23.226;2023-06-14T06:24:00;12.55;;;5.00;;
56242;SDS011;42155;53.096;23.226;2023-06-14T06:26:00;15.70;;;4.32;;
56242;SDS011;42155;53.096;23.226;2023-06-14T06:28:01;9.90;;;4.28;;
56242;SDS011;42155;53.096;23.226;2023-06-14T06:30:01;14.13;;;4.18;;
56242;SDS011;42155;53.096;23.226;2023-06-14T06:32:02;10.25;;;4.55;;
56242;SDS011;42155;53.096;23.226;2023-06-14T06:34:02;8.93;;;4.47;;
56242;SDS011;42155;53.096;23.226;2023-06-14T06:36:02;11.27;;;4.93;;
56242;SDS011;42155;53.096;23.226;2023-06-14T06:38:03;10.95;;;4.53;;
56242;SDS011;42155;53.096;23.226;2023-06-14T06:40:03;9.73;;;5.03;;
56242;SDS011;42155;53.096;23.226;2023-06-14T06:42:04;8.70;;;3.95;;
56242;SDS011;42155;53.096;23.226;2023-06-14T06:44:07;8.55;;;4.15;;
56242;SDS011;42155;53.096;23.226;2023-06-14T06:46:08;8.82;;;4.00;;
56242;SDS011;42155;53.096;23.226;2023-06-14T06:48:08;9.20;;;4.25;;
56242;SDS011;42155;53.096;23.226;2023-06-14T06:50:09;9.65;;;4.50;;
56242;SDS011;42155;53.096;23.226;2023-06-14T06:52:09;6.32;;;3.90;;
56242;SDS011;42155;53.096;23.226;2023-06-14T06:54:10;9.57;;;4.93;;
56242;SDS011;42155;53.096;23.226;2023-06-14T06:56:10;6.55;;;4.10;;
56242;SDS011;42155;53.096;23.226;2023-06-14T06:58:11;8.13;;;4.38;;
56242;SDS011;42155;53.096;23.226;2023-06-14T07:00:12;9.77;;;4.80;;
56242;SDS011;42155;53.096;23.226;2023-06-14T07:02:13;9.85;;;4.47;;
56242;SDS011;42155;53.096;23.226;2023-06-14T07:04:13;10.35;;;4.40;;
56242;SDS011;42155;53.096;23.226;2023-06-14T07:06:13;6.55;;;4.28;;
56242;SDS011;42155;53.096;23.226;2023-06-14T07:08:14;6.93;;;4.05;;
56242;SDS011;42155;53.096;23.226;2023-06-14T07:10:14;7.45;;;4.57;;
56242;SDS011;42155;53.096;23.226;2023-06-14T07:12:15;12.88;;;4.00;;
56242;SDS011;42155;53.096;23.226;2023-06-14T07:14:15;10.52;;;4.50;;
56242;SDS011;42155;53.096;23.226;2023-06-14T07:16:15;7.97;;;4.20;;
56242;SDS011;42155;53.096;23.226;2023-06-14T07:18:16;9.07;;;4.13;;
56242;SDS011;42155;53.096;23.226;2023-06-14T07:20:16;8.85;;;4.82;;
56242;SDS011;42155;53.096;23.226;2023-06-14T07:22:17;6.50;;;3.75;;
56242;SDS011;42155;53.096;23.226;2023-06-14T07:24:17;7.47;;;4.03;;
56242;SDS011;42155;53.096;23.226;2023-06-14T07:26:17;7.75;;;4.68;;
56242;SDS011;42155;53.096;23.226;2023-06-14T07:28:18;12.45;;;4.18;;
56242;SDS011;42155;53.096;23.226;2023-06-14T07:30:18;7.88;;;4.05;;
56242;SDS011;42155;53.096;23.226;2023-06-14T07:32:18;9.90;;;4.88;;
56242;SDS011;42155;53.096;23.226;2023-06-14T07:34:19;8.98;;;4.18;;
56242;SDS011;42155;53.096;23.226;2023-06-14T07:36:19;13.85;;;6.00;;
56242;SDS011;42155;53.096;23.226;2023-06-14T07:38:19;6.70;;;4.30;;
56242;SDS011;42155;53.096;23.226;2023-06-14T07:40:20;10.73;;;4.60;;
56242;SDS011;42155;53.096;23.226;2023-06-14T07:42:20;7.30;;;3.97;;
56242;SDS011;42155;53.096;23.226;2023-06-14T07:44:20;6.82;;;3.97;;
56242;SDS011;42155;53.096;23.226;2023-06-14T07:46:21;6.28;;;4.40;;
56242;SDS011;42155;53.096;23.226;2023-06-14T07:48:21;7.63;;;4.45;;
56242;SDS011;42155;53.096;23.226;2023-06-14T07:50:21;8.30;;;3.95;;
56242;SDS011;42155;53.096;23.226;2023-06-14T07:52:22;8.60;;;4.22;;
56242;SDS011;42155;53.096;23.226;2023-06-14T07:54:22;6.90;;;4.00;;
56242;SDS011;42155;53.096;23.226;2023-06-14T07:56:22;7.07;;;3.92;;
56242;SDS011;42155;53.096;23.226;2023-06-14T07:58:23;10.00;;;4.22;;
56242;SDS011;42155;53.096;23.226;2023-06-14T08:00:23;9.40;;;4.35;;
56242;SDS011;42155;53.096;23.226;2023-06-14T08:02:23;8.05;;;4.22;;
56242;SDS011;42155;53.096;23.226;2023-06-14T08:04:24;10.02;;;4.72;;
56242;SDS011;42155;53.096;23.226;2023-06-14T08:06:24;8.45;;;4.30;;
56242;SDS011;42155;53.096;23.226;2023-06-14T08:08:24;9.15;;;4.43;;
56242;SDS011;42155;53.096;23.226;2023-06-14T08:10:25;12.75;;;4.28;;
56242;SDS011;42155;53.096;23.226;2023-06-14T08:12:25;13.48;;;4.50;;
56242;SDS011;42155;53.096;23.226;2023-06-14T08:14:25;7.13;;;4.13;;
56242;SDS011;42155;53.096;23.226;2023-06-14T08:16:26;12.20;;;3.92;;
56242;SDS011;42155;53.096;23.226;2023-06-14T08:18:26;10.27;;;4.43;;
56242;SDS011;42155;53.096;23.226;2023-06-14T08:20:26;6.15;;;3.92;;
56242;SDS011;42155;53.096;23.226;2023-06-14T08:22:27;8.20;;;3.50;;
56242;SDS011;42155;53.096;23.226;2023-06-14T08:24:27;6.38;;;3.65;;
56242;SDS011;42155;53.096;23.226;2023-06-14T08:26:27;8.05;;;3.17;;
56242;SDS011;42155;53.096;23.226;2023-06-14T08:28:28;5.45;;;2.95;;
56242;SDS011;42155;53.096;23.226;2023-06-14T08:30:28;8.90;;;3.22;;
56242;SDS011;42155;53.096;23.226;2023-06-14T08:32:28;17.20;;;3.88;;
56242;SDS011;42155;53.096;23.226;2023-06-14T08:34:29;8.13;;;3.33;;
56242;SDS011;42155;53.096;23.226;2023-06-14T08:36:29;10.32;;;3.90;;
56242;SDS011;42155;53.096;23.226;2023-06-14T08:38:29;6.00;;;3.65;;
56242;SDS011;42155;53.096;23.226;2023-06-14T08:40:30;8.32;;;4.18;;
56242;SDS011;42155;53.096;23.226;2023-06-14T08:42:31;5.90;;;3.13;;
56242;SDS011;42155;53.096;23.226;2023-06-14T08:44:33;5.45;;;3.15;;
56242;SDS011;42155;53.096;23.226;2023-06-14T08:46:33;5.68;;;3.33;;
56242;SDS011;42155;53.096;23.226;2023-06-14T08:48:36;5.75;;;3.20;;
56242;SDS011;42155;53.096;23.226;2023-06-14T08:50:37;6.03;;;2.97;;
56242;SDS011;42155;53.096;23.226;2023-06-14T08:52:41;7.90;;;3.70;;
56242;SDS011;42155;53.096;23.226;2023-06-14T08:54:48;6.05;;;3.22;;
56242;SDS011;42155;53.096;23.226;2023-06-14T08:56:48;6.45;;;3.45;;
56242;SDS011;42155;53.096;23.226;2023-06-14T08:58:49;9.32;;;3.65;;
56242;SDS011;42155;53.096;23.226;2023-06-14T09:00:49;13.45;;;3.55;;
56242;SDS011;42155;53.096;23.226;2023-06-14T09:02:50;5.07;;;3.10;;
56242;SDS011;42155;53.096;23.226;2023-06-14T09:04:51;6.35;;;3.45;;
56242;SDS011;42155;53.096;23.226;2023-06-14T09:06:52;6.35;;;3.00;;
56242;SDS011;42155;53.096;23.226;2023-06-14T09:08:52;4.07;;;2.80;;
56242;SDS011;42155;53.096;23.226;2023-06-14T09:10:54;5.88;;;2.80;;
56242;SDS011;42155;53.096;23.226;2023-06-14T09:12:55;7.28;;;3.00;;
56242;SDS011;42155;53.096;23.226;2023-06-14T09:14:55;5.45;;;2.90;;
56242;SDS011;42155;53.096;23.226;2023-06-14T09:16:55;7.95;;;2.78;;
56242;SDS011;42155;53.096;23.226;2023-06-14T09:18:56;5.82;;;3.00;;
56242;SDS011;42155;53.096;23.226;2023-06-14T09:20:56;5.97;;;2.85;;
56242;SDS011;42155;53.096;23.226;2023-06-14T09:22:59;4.95;;;2.75;;
56242;SDS011;42155;53.096;23.226;2023-06-14T09:25:01;7.53;;;3.00;;
56242;SDS011;42155;53.096;23.226;2023-06-14T09:27:02;7.15;;;2.70;;
56242;SDS011;42155;53.096;23.226;2023-06-14T09:29:05;8.73;;;2.80;;
56242;SDS011;42155;53.096;23.226;2023-06-14T09:31:06;6.25;;;2.80;;
56242;SDS011;42155;53.096;23.226;2023-06-14T09:33:07;5.00;;;2.47;;
56242;SDS011;42155;53.096;23.226;2023-06-14T09:35:07;7.55;;;2.78;;
56242;SDS011;42155;53.096;23.226;2023-06-14T09:37:08;5.88;;;2.50;;
56242;SDS011;42155;53.096;23.226;2023-06-14T09:39:09;5.88;;;2.70;;
56242;SDS011;42155;53.096;23.226;2023-06-14T09:41:09;4.75;;;2.67;;
56242;SDS011;42155;53.096;23.226;2023-06-14T09:43:09;5.93;;;2.55;;
56242;SDS011;42155;53.096;23.226;2023-06-14T09:45:10;6.65;;;2.50;;
56242;SDS011;42155;53.096;23.226;2023-06-14T09:47:11;7.60;;;2.60;;
56242;SDS011;42155;53.096;23.226;2023-06-14T09:49:12;6.13;;;2.58;;
56242;SDS011;42155;53.096;23.226;2023-06-14T09:51:13;6.72;;;3.10;;
56242;SDS011;42155;53.096;23.226;2023-06-14T09:53:15;4.95;;;2.40;;
56242;SDS011;42155;53.096;23.226;2023-06-14T09:55:20;4.30;;;2.72;;
56242;SDS011;42155;53.096;23.226;2023-06-14T09:57:22;5.20;;;2.15;;
56242;SDS011;42155;53.096;23.226;2023-06-14T09:59:25;4.05;;;2.30;;
56242;SDS011;42155;53.096;23.226;2023-06-14T10:01:30;4.18;;;2.58;;
56242;SDS011;42155;53.096;23.226;2023-06-14T10:03:31;6.63;;;2.70;;
56242;SDS011;42155;53.096;23.226;2023-06-14T10:05:32;4.95;;;2.70;;
56242;SDS011;42155;53.096;23.226;2023-06-14T10:08:10;7.18;;;2.63;;
56242;SDS011;42155;53.096;23.226;2023-06-14T10:10:11;6.05;;;2.65;;
56242;SDS011;42155;53.096;23.226;2023-06-14T10:12:12;4.28;;;2.58;;
56242;SDS011;42155;53.096;23.226;2023-06-14T10:14:12;3.92;;;2.60;;
56242;SDS011;42155;53.096;23.226;2023-06-14T10:18:16;5.93;;;3.35;;
56242;SDS011;42155;53.096;23.226;2023-06-14T10:20:28;8.07;;;3.45;;
56242;SDS011;42155;53.096;23.226;2023-06-14T10:22:36;7.07;;;2.58;;
56242;SDS011;42155;53.096;23.226;2023-06-14T10:24:43;6.43;;;2.97;;
56242;SDS011;42155;53.096;23.226;2023-06-14T10:26:51;11.63;;;3.08;;
56242;SDS011;42155;53.096;23.226;2023-06-14T10:29:00;9.93;;;2.95;;
56242;SDS011;42155;53.096;23.226;2023-06-14T10:31:07;7.18;;;2.67;;
56242;SDS011;42155;53.096;23.226;2023-06-14T10:33:08;6.80;;;2.83;;
56242;SDS011;42155;53.096;23.226;2023-06-14T10:35:09;10.20;;;3.05;;
56242;SDS011;42155;53.096;23.226;2023-06-14T10:37:16;5.85;;;2.53;;
56242;SDS011;42155;53.096;23.226;2023-06-14T10:39:17;7.70;;;3.00;;
56242;SDS011;42155;53.096;23.226;2023-06-14T10:41:17;4.90;;;2.63;;
56242;SDS011;42155;53.096;23.226;2023-06-14T10:43:22;7.18;;;3.08;;
56242;SDS011;42155;53.096;23.226;2023-06-14T10:45:23;10.02;;;2.70;;
56242;SDS011;42155;53.096;23.226;2023-06-14T10:51:44;5.70;;;2.60;;
56242;SDS011;42155;53.096;23.226;2023-06-14T10:53:48;5.35;;;2.53;;
56242;SDS011;42155;53.096;23.226;2023-06-14T10:55:49;7.50;;;2.70;;
56242;SDS011;42155;53.096;23.226;2023-06-14T10:57:51;4.97;;;2.80;;
56242;SDS011;42155;53.096;23.226;2023-06-14T10:59:53;10.02;;;2.92;;
56242;SDS011;42155;53.096;23.226;2023-06-14T11:01:57;8.27;;;2.60;;
56242;SDS011;42155;53.096;23.226;2023-06-14T11:04:16;5.97;;;2.50;;
56242;SDS011;42155;53.096;23.226;2023-06-14T11:06:21;9.07;;;3.03;;
56242;SDS011;42155;53.096;23.226;2023-06-14T11:10:58;7.30;;;2.67;;
56242;SDS011;42155;53.096;23.226;2023-06-14T11:13:06;6.05;;;2.58;;
56242;SDS011;42155;53.096;23.226;2023-06-14T11:15:07;5.70;;;2.55;;
56242;SDS011;42155;53.096;23.226;2023-06-14T11:17:08;5.70;;;2.53;;
56242;SDS011;42155;53.096;23.226;2023-06-14T11:19:08;3.53;;;2.20;;
56242;SDS011;42155;53.096;23.226;2023-06-14T11:21:10;7.53;;;2.75;;
56242;SDS011;42155;53.096;23.226;2023-06-14T11:23:10;4.97;;;2.40;;
56242;SDS011;42155;53.096;23.226;2023-06-14T11:25:11;7.97;;;2.92;;
56242;SDS011;42155;53.096;23.226;2023-06-14T11:27:15;8.85;;;2.90;;
56242;SDS011;42155;53.096;23.226;2023-06-14T11:29:19;8.63;;;2.90;;
56242;SDS011;42155;53.096;23.226;2023-06-14T11:31:20;8.82;;;3.05;;
56242;SDS011;42155;53.096;23.226;2023-06-14T11:33:21;7.43;;;2.45;;
56242;SDS011;42155;53.096;23.226;2023-06-14T11:35:22;6.28;;;2.72;;
56242;SDS011;42155;53.096;23.226;2023-06-14T11:37:25;6.72;;;2.72;;
56242;SDS011;42155;53.096;23.226;2023-06-14T11:39:27;9.55;;;2.70;;
56242;SDS011;42155;53.096;23.226;2023-06-14T11:41:32;6.57;;;2.92;;
56242;SDS011;42155;53.096;23.226;2023-06-14T11:43:33;8.00;;;2.50;;
56242;SDS011;42155;53.096;23.226;2023-06-14T11:45:33;5.97;;;2.63;;
56242;SDS011;42155;53.096;23.226;2023-06-14T11:47:37;6.47;;;2.65;;
56242;SDS011;42155;53.096;23.226;2023-06-14T11:49:39;13.07;;;3.03;;
56242;SDS011;42155;53.096;23.226;2023-06-14T11:51:39;5.45;;;2.50;;
56242;SDS011;42155;53.096;23.226;2023-06-14T11:53:42;6.85;;;2.78;;
56242;SDS011;42155;53.096;23.226;2023-06-14T11:55:43;6.10;;;2.45;;
56242;SDS011;42155;53.096;23.226;2023-06-14T11:57:43;12.48;;;2.67;;
56242;SDS011;42155;53.096;23.226;2023-06-14T11:59:46;6.03;;;2.85;;
56242;SDS011;42155;53.096;23.226;2023-06-14T12:01:47;5.70;;;2.40;;
56242;SDS011;42155;53.096;23.226;2023-06-14T12:03:48;7.18;;;2.30;;
56242;SDS011;42155;53.096;23.226;2023-06-14T12:05:49;6.85;;;2.72;;